Lisboa, Portugal

05:55 AM WET em 06 de Março de 2015 (GMT +0000)
Lisbon | Change Station
CLOSE
Current Station
Aeroporto
Location: Lisbon,
Altitude: 404 ft
Estações Meteorológicas Próximas

Elev 404 ft 38.78 °N, 9.14 °W | Updated 25 minutes ago

Clear
Céu Limpo
48 °F
Aparente 48 °F
N
9
Vento Variável Vento de ENE

Hoje
Máxima -- | Mínima -- °F
--% Possibilidade de Precip.
Ontem
Máxima -- | Mínima -- °F
Precip. -- pol
7:02 AM 6:34 PM
Lua cheia, 100% visible
Pressão 30.33 pol
Visibilidade -9999.0 milhas
Nuvens
Ponto de Orvalho 34 °F
Humidade 58%
Chuva 0.00 pol
Altura de Neve Não disponível
UV Não disponível
Pólen Não disponível
Qualidade do Ar Não disponível
Flu Activity Não disponível
METAR LPPT 060530Z 06008KT CAVOK 09/01 Q1027

More Conditions Fewer Conditions

Pressão 30.33 pol
Visibilidade -9999.0 milhas
Nuvens
Ponto de Orvalho 34 °F
Humidade 58%
Chuva 0.00 pol
Altura de Neve Não disponível
UV Não disponível
Pólen Não disponível
Qualidade do Ar Não disponível
Flu Activity Não disponível
METAR LPPT 060530Z 06008KT CAVOK 09/01 Q1027

More Conditions Fewer Conditions

10-Day Weather Forecast

Almanac

Astronomia

Mar. 06, 2015 Nascer Pôr
Hora atual
Crepúsculo civil
Crepúsculo náutico
Crepúsculo astronómico
Lua
Comprimento da luz visível
Duração do Dia
Tomorrow will be .
, % of the Moon is Illuminated

Extremos de Hoje

Altitude na localidade Altura mais baixa na localidade

Community

WunderPhotos

Upload Photos

1,803,207 fotografias inseridas!

WunderBlogs® & News

Nearby

Qualidade do Ar

  Qualidade do Ar Índice da Q.A. Poluente
Not available.

Altura da Neve

Estação altura Altitude

Actividade Sísmisca

Cidade Distância Mag. Hora & Data
Mínima magnitude apresentada é 2.5.

Temperaturas das Águas Costeiras

Local Temperatura

Estações Meteorológicas Próximas